createdAt,value
2018-02-22T00:01:52.211Z,-3.70
2018-02-22T00:04:20.494Z,-3.80
2018-02-22T00:06:48.766Z,-3.70
2018-02-22T00:09:17.059Z,-3.80
2018-02-22T00:11:44.566Z,-3.80
2018-02-22T00:14:12.179Z,-3.90
2018-02-22T00:16:39.686Z,-3.90
2018-02-22T00:19:07.215Z,-3.90
2018-02-22T00:21:34.742Z,-3.90
2018-02-22T00:24:03.018Z,-4.00
2018-02-22T00:26:31.311Z,-3.90
2018-02-22T00:28:58.869Z,-3.90
2018-02-22T00:31:26.427Z,-3.90
2018-02-22T00:33:53.989Z,-3.90
2018-02-22T00:36:21.552Z,-4.00
2018-02-22T00:38:49.063Z,-4.00
2018-02-22T00:41:16.654Z,-4.00
2018-02-22T00:43:44.166Z,-4.00
2018-02-22T00:46:11.690Z,-4.00
2018-02-22T00:48:39.234Z,-4.10
2018-02-22T00:51:06.759Z,-4.20
2018-02-22T00:53:34.346Z,-4.20
2018-02-22T00:56:01.914Z,-4.20
2018-02-22T00:58:29.419Z,-4.20
2018-02-22T01:00:56.942Z,-4.20
2018-02-22T01:03:24.483Z,-4.20
2018-02-22T01:05:52.055Z,-4.20
2018-02-22T01:08:19.619Z,-4.10
2018-02-22T01:10:47.162Z,-4.10
2018-02-22T01:13:14.723Z,-4.20
2018-02-22T01:15:42.247Z,-4.10
2018-02-22T01:18:10.522Z,-4.10
2018-02-22T01:20:38.226Z,-4.10
2018-02-22T01:23:05.736Z,-4.10
2018-02-22T01:25:33.258Z,-4.20
2018-02-22T01:28:00.767Z,-4.20
2018-02-22T01:30:29.055Z,-4.20
2018-02-22T01:32:57.330Z,-4.20
2018-02-22T01:35:25.626Z,-4.20
2018-02-22T01:37:53.134Z,-4.30
2018-02-22T01:40:20.686Z,-4.30
2018-02-22T01:42:48.195Z,-4.20
2018-02-22T01:45:15.717Z,-4.30
2018-02-22T01:47:43.240Z,-4.40
2018-02-22T01:50:10.754Z,-4.40
2018-02-22T01:52:39.048Z,-4.40
2018-02-22T01:55:06.562Z,-4.40
2018-02-22T01:57:34.086Z,-4.50
2018-02-22T02:00:01.594Z,-4.50
2018-02-22T02:02:29.886Z,-4.40
2018-02-22T02:04:58.175Z,-4.30
2018-02-22T02:07:25.707Z,-4.40
2018-02-22T02:09:54.020Z,-4.20
2018-02-22T02:12:21.555Z,-4.20
2018-02-22T02:14:49.837Z,-4.10
2018-02-22T02:17:17.371Z,-4.10
2018-02-22T02:19:44.874Z,-4.10
2018-02-22T02:22:12.402Z,-4.10
2018-02-22T02:24:40.675Z,-4.10
2018-02-22T02:27:08.971Z,-4.00
2018-02-22T02:29:36.484Z,-4.00
2018-02-22T02:32:04.012Z,-3.90
2018-02-22T02:34:31.518Z,-4.00
2018-02-22T02:36:59.809Z,-4.00
2018-02-22T02:39:28.098Z,-4.00
2018-02-22T02:41:55.634Z,-4.00
2018-02-22T02:44:23.908Z,-3.90
2018-02-22T02:46:52.194Z,-3.80
2018-02-22T02:49:20.479Z,-3.80
2018-02-22T02:51:48.011Z,-3.80
2018-02-22T02:54:15.525Z,-3.80
2018-02-22T02:56:43.051Z,-3.90
2018-02-22T02:59:10.578Z,-3.80
2018-02-22T03:01:38.878Z,-3.80
2018-02-22T03:04:07.155Z,-3.80
2018-02-22T03:06:35.450Z,-3.90
2018-02-22T03:09:03.013Z,-3.90
2018-02-22T03:11:30.541Z,-3.70
2018-02-22T03:13:58.813Z,-3.80
2018-02-22T03:16:27.102Z,-3.80
2018-02-22T03:18:55.375Z,-3.90
2018-02-22T03:21:23.666Z,-3.80
2018-02-22T03:23:51.183Z,-3.80
2018-02-22T03:26:18.706Z,-3.90
2018-02-22T03:28:46.215Z,-3.90
2018-02-22T03:31:14.511Z,-3.90
2018-02-22T03:33:42.074Z,-4.00
2018-02-22T03:36:09.634Z,-4.00
2018-02-22T03:38:37.143Z,-3.90
2018-02-22T03:41:04.675Z,-3.90
2018-02-22T03:43:32.187Z,-3.80
2018-02-22T03:46:00.527Z,-3.80
2018-02-22T03:48:28.010Z,-3.80
2018-02-22T03:50:55.522Z,-3.80
2018-02-22T03:53:23.046Z,-3.80
2018-02-22T03:55:51.322Z,-3.80
2018-02-22T03:58:19.614Z,-3.80
2018-02-22T04:00:47.130Z,-3.80
2018-02-22T04:03:14.662Z,-3.80
2018-02-22T04:05:42.167Z,-3.70
2018-02-22T04:08:10.462Z,-3.70
2018-02-22T04:10:38.026Z,-3.70
2018-02-22T04:13:05.562Z,-3.60
2018-02-22T04:15:33.830Z,-3.60
2018-02-22T04:18:02.132Z,-3.60
2018-02-22T04:20:29.634Z,-3.60
2018-02-22T04:22:57.159Z,-3.60
2018-02-22T04:25:24.671Z,-3.60
2018-02-22T04:27:52.201Z,-3.60
2018-02-22T04:30:19.726Z,-3.50
2018-02-22T04:32:47.282Z,-3.50
2018-02-22T04:35:14.802Z,-3.60
2018-02-22T04:37:42.333Z,-3.70
2018-02-22T04:40:09.838Z,-3.70
2018-02-22T04:42:38.146Z,-3.80
2018-02-22T04:45:05.666Z,-3.80
2018-02-22T04:47:33.958Z,-3.80
2018-02-22T04:50:02.257Z,-3.80
2018-02-22T04:52:29.791Z,-3.80
2018-02-22T04:54:58.082Z,-3.80
2018-02-22T04:57:25.590Z,-3.80
2018-02-22T04:59:53.114Z,-3.80
2018-02-22T05:02:21.463Z,-3.70
2018-02-22T05:04:49.760Z,-3.70
2018-02-22T05:07:17.266Z,-3.70
2018-02-22T05:09:44.798Z,-3.70
2018-02-22T05:12:12.303Z,-3.70
2018-02-22T05:14:40.596Z,-3.80
2018-02-22T05:17:08.115Z,-3.80
2018-02-22T05:19:37.150Z,-3.80
2018-02-22T05:22:04.659Z,-3.90
2018-02-22T05:24:32.194Z,-3.80
2018-02-22T05:26:59.698Z,-3.80
2018-02-22T05:29:28.036Z,-3.80
2018-02-22T05:31:55.562Z,-3.80
2018-02-22T05:34:23.088Z,-3.80
2018-02-22T05:36:51.378Z,-3.80
2018-02-22T05:39:19.672Z,-3.80
2018-02-22T05:41:47.237Z,-3.90
2018-02-22T05:44:14.747Z,-3.90
2018-02-22T05:46:43.779Z,-3.90
2018-02-22T05:49:11.298Z,-3.80
2018-02-22T05:51:38.827Z,-3.80
2018-02-22T05:54:06.331Z,-3.80
2018-02-22T05:56:34.634Z,-3.80
2018-02-22T05:59:02.159Z,-3.80
2018-02-22T06:01:29.684Z,-3.80
2018-02-22T06:03:57.190Z,-3.80
2018-02-22T06:06:25.487Z,-3.80
2018-02-22T06:08:53.001Z,-3.90
2018-02-22T06:11:20.544Z,-3.90
2018-02-22T06:13:48.104Z,-3.90
2018-02-22T06:16:15.630Z,-3.90
2018-02-22T06:18:43.144Z,-4.00
2018-02-22T06:21:10.671Z,-3.90
2018-02-22T06:23:38.180Z,-4.00
2018-02-22T06:26:06.479Z,-4.00
2018-02-22T06:28:34.036Z,-4.00
2018-02-22T06:31:01.562Z,-4.00
2018-02-22T06:33:29.842Z,-4.00
2018-02-22T06:35:58.142Z,-4.00
2018-02-22T06:38:25.646Z,-4.10
2018-02-22T06:40:53.259Z,-4.10
2018-02-22T06:43:20.771Z,-4.10
2018-02-22T06:45:49.811Z,-4.20
2018-02-22T06:48:17.342Z,-4.20
2018-02-22T06:50:45.651Z,-4.00
2018-02-22T06:53:13.174Z,-4.00
2018-02-22T06:55:40.678Z,-4.00
2018-02-22T06:58:08.206Z,-4.10
2018-02-22T07:00:36.478Z,-4.10
2018-02-22T07:03:04.874Z,-4.00
2018-02-22T07:05:32.386Z,-4.10
2018-02-22T07:07:59.906Z,-4.00
2018-02-22T07:10:27.414Z,-4.10
2018-02-22T07:12:54.943Z,-4.10
2018-02-22T07:15:22.450Z,-4.10
2018-02-22T07:17:50.736Z,-4.10
2018-02-22T07:20:18.267Z,-4.10
2018-02-22T07:22:45.860Z,-4.10
2018-02-22T07:25:13.366Z,-4.00
2018-02-22T07:27:40.943Z,-4.00
2018-02-22T07:30:08.538Z,-4.00
2018-02-22T07:32:36.098Z,-4.00
2018-02-22T07:35:03.663Z,-4.10
2018-02-22T07:37:31.923Z,-4.00
2018-02-22T07:39:59.429Z,-4.00
2018-02-22T07:42:26.968Z,-4.00
2018-02-22T07:44:54.482Z,-4.00
2018-02-22T07:47:22.759Z,-4.00
2018-02-22T07:49:51.059Z,-4.00
2018-02-22T07:52:18.563Z,-4.00
2018-02-22T07:54:46.087Z,-4.00
2018-02-22T07:57:13.634Z,-4.00
2018-02-22T07:59:41.191Z,-4.00
2018-02-22T08:02:09.115Z,-4.00
2018-02-22T08:04:36.629Z,-4.00
2018-02-22T08:07:04.134Z,-4.00
2018-02-22T08:09:31.658Z,-4.10
2018-02-22T08:11:59.166Z,-4.00
2018-02-22T08:14:27.463Z,-3.90
2018-02-22T08:16:55.026Z,-3.80
2018-02-22T08:19:22.555Z,-3.80
2018-02-22T08:21:50.835Z,-3.70
2018-02-22T08:24:19.126Z,-3.60
2018-02-22T08:26:47.410Z,-3.50
2018-02-22T08:29:14.938Z,-3.50
2018-02-22T08:31:42.531Z,-3.50
2018-02-22T08:34:10.090Z,-3.60
2018-02-22T08:36:37.651Z,-3.50
2018-02-22T08:39:05.206Z,-3.60
2018-02-22T08:41:32.715Z,-3.70
2018-02-22T08:44:00.256Z,-3.60
2018-02-22T08:46:27.762Z,-3.60
2018-02-22T08:48:56.037Z,-3.60
2018-02-22T08:51:24.326Z,-3.60
2018-02-22T08:53:51.831Z,-3.60
2018-02-22T08:56:19.454Z,-3.70
2018-02-22T08:58:46.963Z,-3.60
2018-02-22T09:01:14.486Z,-3.50
2018-02-22T09:03:41.990Z,-3.30
2018-02-22T09:06:09.511Z,-3.30
2018-02-22T09:08:37.016Z,-3.40
2018-02-22T09:11:05.313Z,-3.20
2018-02-22T09:13:32.819Z,-3.20
2018-02-22T09:16:00.346Z,-3.20
2018-02-22T09:18:27.899Z,-3.00
2018-02-22T09:20:55.461Z,-2.90
2018-02-22T09:23:22.968Z,-3.00
2018-02-22T09:25:50.574Z,-3.00
2018-02-22T09:28:18.135Z,-3.20
2018-02-22T09:30:45.658Z,-3.30
2018-02-22T09:33:13.173Z,-3.40
2018-02-22T09:35:40.695Z,-3.30
2018-02-22T09:38:08.207Z,-3.30
2018-02-22T09:40:35.747Z,-3.10
2018-02-22T09:43:03.255Z,-3.20
2018-02-22T09:45:31.555Z,-3.10
2018-02-22T09:47:59.080Z,-3.10
2018-02-22T09:50:27.360Z,-3.10
2018-02-22T09:52:54.959Z,-3.10
2018-02-22T09:55:22.466Z,-2.90
2018-02-22T09:57:49.991Z,-2.70
2018-02-22T10:00:17.499Z,-2.80
2018-02-22T10:02:45.791Z,-3.10
2018-02-22T10:05:14.085Z,-3.30
2018-02-22T10:07:41.610Z,-3.30
2018-02-22T10:10:09.883Z,-3.20
2018-02-22T10:12:38.174Z,-3.00
2018-02-22T10:15:06.472Z,-3.30
2018-02-22T10:17:34.026Z,-3.30
2018-02-22T10:20:01.569Z,-3.20
2018-02-22T10:22:29.071Z,-3.20
2018-02-22T10:24:56.586Z,-3.10
2018-02-22T10:27:24.880Z,-3.30
2018-02-22T10:29:52.387Z,-3.30
2018-02-22T10:32:19.906Z,-3.30
2018-02-22T10:34:47.431Z,-3.40
2018-02-22T10:37:15.831Z,-3.20
2018-02-22T10:39:43.342Z,-3.20
2018-02-22T10:42:11.651Z,-3.10
2018-02-22T10:44:39.158Z,-3.10
2018-02-22T10:47:06.663Z,-3.10
2018-02-22T10:49:34.950Z,-2.80
2018-02-22T10:52:02.461Z,-2.80
2018-02-22T10:54:29.992Z,-2.80
2018-02-22T10:56:57.499Z,-2.90
2018-02-22T10:59:25.807Z,-2.50
2018-02-22T11:01:59.087Z,-2.50
2018-02-22T11:04:27.379Z,-2.40
2018-02-22T11:06:54.887Z,-2.40
2018-02-22T11:09:22.413Z,-2.70
2018-02-22T11:11:49.922Z,-2.80
2018-02-22T11:14:18.211Z,-2.80
2018-02-22T11:16:46.483Z,-2.70
2018-02-22T11:19:14.771Z,-2.70
2018-02-22T11:21:42.339Z,-2.70
2018-02-22T11:24:09.905Z,-2.60
2018-02-22T11:26:37.454Z,-2.50
2018-02-22T11:29:04.983Z,-2.60
2018-02-22T11:31:33.254Z,-2.50
2018-02-22T11:34:00.778Z,-2.50
2018-02-22T11:36:28.282Z,-2.60
2018-02-22T11:38:56.570Z,-2.70
2018-02-22T11:41:24.846Z,-2.80
2018-02-22T11:43:53.140Z,-2.90
2018-02-22T11:46:20.646Z,-2.90
2018-02-22T11:48:48.355Z,-2.90
2018-02-22T11:51:15.876Z,-3.00
2018-02-22T11:53:44.456Z,-3.00
2018-02-22T11:56:11.983Z,-2.90
2018-02-22T11:58:39.513Z,-2.80
2018-02-22T12:01:07.035Z,-2.90
2018-02-22T12:03:34.626Z,-3.00
2018-02-22T12:06:02.164Z,-2.80
2018-02-22T12:08:30.439Z,-2.90
2018-02-22T12:10:58.728Z,-2.70
2018-02-22T12:13:26.237Z,-2.70
2018-02-22T12:15:53.765Z,-2.80
2018-02-22T12:18:21.270Z,-2.80
2018-02-22T12:20:50.307Z,-2.70
2018-02-22T12:23:19.579Z,-2.70
2018-02-22T12:25:47.867Z,-2.40
2018-02-22T12:28:16.148Z,-2.20
2018-02-22T12:30:43.671Z,-2.20
2018-02-22T12:33:11.275Z,-2.00
2018-02-22T12:35:38.794Z,-2.40
2018-02-22T12:38:06.308Z,-2.20
2018-02-22T12:40:33.831Z,-2.20
2018-02-22T12:43:02.104Z,-2.20
2018-02-22T12:45:30.403Z,-2.10
2018-02-22T12:47:57.971Z,-2.10
2018-02-22T12:50:25.495Z,-1.90
2018-02-22T12:52:53.771Z,-1.70
2018-02-22T12:55:22.064Z,-2.00
2018-02-22T12:57:49.571Z,-2.00
2018-02-22T13:00:17.097Z,-2.20
2018-02-22T13:02:44.651Z,-2.00
2018-02-22T13:05:12.174Z,-2.10
2018-02-22T13:07:39.679Z,-2.00
2018-02-22T13:10:07.208Z,-2.20
2018-02-22T13:12:35.475Z,-2.30
2018-02-22T13:15:03.763Z,-2.40
2018-02-22T13:17:32.151Z,-2.30
2018-02-22T13:19:59.658Z,-2.30
2018-02-22T13:22:27.183Z,-2.20
2018-02-22T13:24:54.688Z,-2.20
2018-02-22T13:27:22.285Z,-2.30
2018-02-22T13:29:49.848Z,-2.20
2018-02-22T13:32:17.406Z,-2.00
2018-02-22T13:34:44.929Z,-1.90
2018-02-22T13:37:25.230Z,-2.00
2018-02-22T13:39:52.779Z,-2.00
2018-02-22T13:42:20.340Z,-2.20
2018-02-22T13:44:59.634Z,-2.40
2018-02-22T13:47:27.926Z,-2.40
2018-02-22T13:50:08.103Z,-2.50
2018-02-22T13:52:35.628Z,-2.50
2018-02-22T13:55:03.144Z,-2.50
2018-02-22T13:57:30.663Z,-2.30
2018-02-22T13:59:58.930Z,-2.30
2018-02-22T14:02:27.218Z,-2.30
2018-02-22T14:04:55.691Z,-2.30
2018-02-22T14:07:23.984Z,-2.50
2018-02-22T14:09:51.551Z,-2.40
2018-02-22T14:12:19.078Z,-2.60
2018-02-22T14:14:47.350Z,-2.70
2018-02-22T14:17:15.660Z,-2.60
2018-02-22T14:19:43.223Z,-2.60
2018-02-22T14:22:10.743Z,-2.50
2018-02-22T14:24:38.246Z,-2.50
2018-02-22T14:27:05.799Z,-2.60
2018-02-22T14:29:33.310Z,-2.70
2018-02-22T14:32:00.836Z,-2.70
2018-02-22T14:34:28.342Z,-2.60
2018-02-22T14:36:56.743Z,-2.80
2018-02-22T14:39:24.312Z,-2.80
2018-02-22T14:41:51.818Z,-2.70
2018-02-22T14:44:19.346Z,-2.70
2018-02-22T14:46:46.855Z,-2.50
2018-02-22T14:49:15.151Z,-2.70
2018-02-22T14:51:42.659Z,-2.70
2018-02-22T14:54:10.283Z,-2.70
2018-02-22T14:56:37.791Z,-2.50
2018-02-22T14:59:05.311Z,-2.50
2018-02-22T15:01:32.818Z,-2.50
2018-02-22T15:04:01.106Z,-2.70
2018-02-22T15:06:29.398Z,-2.80
2018-02-22T15:08:56.928Z,-2.80
2018-02-22T15:11:25.198Z,-3.10
2018-02-22T15:13:52.791Z,-3.10
2018-02-22T15:16:20.350Z,-3.20
2018-02-22T15:18:47.870Z,-3.30
2018-02-22T15:21:15.375Z,-3.20
2018-02-22T15:23:42.899Z,-3.30
2018-02-22T15:26:11.170Z,-3.40
2018-02-22T15:28:38.698Z,-3.40
2018-02-22T15:31:06.198Z,-3.30
2018-02-22T15:33:34.486Z,-3.20
2018-02-22T15:36:02.054Z,-3.20
2018-02-22T15:38:29.575Z,-3.20
2018-02-22T15:40:57.083Z,-3.20
2018-02-22T15:43:24.624Z,-3.30
2018-02-22T15:45:52.133Z,-3.30
2018-02-22T15:48:19.645Z,-3.40
2018-02-22T15:50:47.167Z,-3.40
2018-02-22T15:53:14.672Z,-3.40
2018-02-22T15:55:42.194Z,-3.50
2018-02-22T15:58:10.498Z,-3.50
2018-02-22T16:00:38.027Z,-3.50
2018-02-22T16:03:06.303Z,-3.50
2018-02-22T16:05:34.598Z,-3.40
2018-02-22T16:08:02.104Z,-3.40
2018-02-22T16:10:29.634Z,-3.30
2018-02-22T16:12:57.140Z,-3.40
2018-02-22T16:15:24.662Z,-3.50
2018-02-22T16:17:52.194Z,-3.40
2018-02-22T16:20:19.727Z,-3.50
2018-02-22T16:22:48.004Z,-3.50
2018-02-22T16:25:16.294Z,-3.50
2018-02-22T16:27:44.584Z,-3.50
2018-02-22T16:30:12.107Z,-3.50
2018-02-22T16:32:39.619Z,-3.40
2018-02-22T16:35:07.147Z,-3.40
2018-02-22T16:37:35.430Z,-3.60
2018-02-22T16:40:02.939Z,-3.60
2018-02-22T16:42:30.464Z,-3.60
2018-02-22T16:44:57.970Z,-3.60
2018-02-22T16:47:26.263Z,-3.50
2018-02-22T16:49:54.540Z,-3.60
2018-02-22T16:52:22.834Z,-3.50
2018-02-22T16:54:50.342Z,-3.50
2018-02-22T16:57:17.870Z,-3.40
2018-02-22T16:59:45.387Z,-3.40
2018-02-22T17:02:13.679Z,-3.40
2018-02-22T17:04:41.182Z,-3.40
2018-02-22T17:07:08.713Z,-3.40
2018-02-22T17:09:36.218Z,-3.50
2018-02-22T17:12:03.819Z,-3.50
2018-02-22T17:14:31.326Z,-3.50
2018-02-22T17:16:58.939Z,-3.60
2018-02-22T17:19:26.451Z,-3.60
2018-02-22T17:21:53.979Z,-3.50
2018-02-22T17:24:21.490Z,-3.50
2018-02-22T17:26:55.390Z,-3.60
2018-02-22T17:29:29.370Z,-3.60
2018-02-22T17:32:02.583Z,-3.70
2018-02-22T17:34:30.091Z,-3.70
2018-02-22T17:37:00.574Z,-3.70
2018-02-22T17:39:33.739Z,-3.60
2018-02-22T17:42:01.267Z,-3.70
2018-02-22T17:44:28.779Z,-3.70
2018-02-22T17:46:56.310Z,-3.80
2018-02-22T17:49:23.814Z,-3.80
2018-02-22T17:51:52.091Z,-3.80
2018-02-22T17:54:20.381Z,-3.80
2018-02-22T17:56:47.887Z,-3.80
2018-02-22T17:59:15.415Z,-3.80
2018-02-22T18:01:43.864Z,-3.80
2018-02-22T18:04:12.163Z,-3.80
2018-02-22T18:06:39.666Z,-3.80
2018-02-22T18:09:07.186Z,-3.80
2018-02-22T18:11:34.691Z,-3.70
2018-02-22T18:14:02.219Z,-3.80
2018-02-22T18:16:29.726Z,-3.80
2018-02-22T18:18:58.023Z,-3.80
2018-02-22T18:21:25.578Z,-3.80
2018-02-22T18:23:53.102Z,-3.80
2018-02-22T18:26:20.702Z,-3.80
2018-02-22T18:28:48.232Z,-3.80
2018-02-22T18:31:16.535Z,-3.90
2018-02-22T18:33:44.046Z,-3.90
2018-02-22T18:36:12.506Z,-3.80
2018-02-22T18:38:45.790Z,-3.80
2018-02-22T18:41:13.310Z,-3.80
2018-02-22T18:43:41.587Z,-3.80
2018-02-22T18:46:09.119Z,-3.80
2018-02-22T18:48:36.646Z,-3.80
2018-02-22T18:51:04.170Z,-3.80
2018-02-22T18:53:31.675Z,-3.80
2018-02-22T18:55:59.194Z,-3.80
2018-02-22T18:58:26.707Z,-3.80
2018-02-22T19:00:54.317Z,-3.80
2018-02-22T19:03:21.871Z,-3.80
2018-02-22T19:05:49.431Z,-3.80
2018-02-22T19:08:16.943Z,-3.80
2018-02-22T19:10:44.467Z,-3.80
2018-02-22T19:13:11.970Z,-3.80
2018-02-22T19:15:40.265Z,-3.80
2018-02-22T19:18:08.579Z,-3.80
2018-02-22T19:20:36.113Z,-3.80
2018-02-22T19:23:03.647Z,-3.80
2018-02-22T19:25:31.922Z,-3.80
2018-02-22T19:28:00.223Z,-3.80
2018-02-22T19:30:27.788Z,-3.80
2018-02-22T19:32:55.311Z,-3.80
2018-02-22T19:35:22.898Z,-3.80
2018-02-22T19:37:50.431Z,-3.80
2018-02-22T19:40:18.738Z,-3.80
2018-02-22T19:42:46.263Z,-3.80
2018-02-22T19:45:13.854Z,-3.90
2018-02-22T19:47:41.378Z,-3.80
2018-02-22T19:50:08.892Z,-3.80
2018-02-22T19:52:36.414Z,-3.80
2018-02-22T19:55:03.926Z,-3.80
2018-02-22T19:57:31.558Z,-3.80
2018-02-22T19:59:59.067Z,-3.80
2018-02-22T20:02:27.378Z,-3.80
2018-02-22T20:04:54.887Z,-3.80
2018-02-22T20:07:22.503Z,-3.80
2018-02-22T20:09:50.016Z,-3.80
2018-02-22T20:12:17.542Z,-3.80
2018-02-22T20:14:45.055Z,-3.90
2018-02-22T20:17:13.354Z,-3.80
2018-02-22T20:19:40.911Z,-3.80
2018-02-22T20:22:08.414Z,-3.90
2018-02-22T20:24:35.935Z,-3.90
2018-02-22T20:27:03.487Z,-3.80
2018-02-22T20:29:31.055Z,-3.80
2018-02-22T20:31:58.576Z,-3.80
2018-02-22T20:34:26.992Z,-3.80
2018-02-22T20:36:54.607Z,-3.80
2018-02-22T20:39:22.213Z,-3.80
2018-02-22T20:41:49.874Z,-3.80
2018-02-22T20:44:17.402Z,-3.80
2018-02-22T20:46:45.672Z,-3.80
2018-02-22T20:49:13.966Z,-3.80
2018-02-22T20:51:41.475Z,-3.80
2018-02-22T20:54:09.000Z,-3.90
2018-02-22T20:56:36.510Z,-3.90
2018-02-22T20:59:05.575Z,-3.90
2018-02-22T21:01:33.090Z,-3.90
2018-02-22T21:04:01.437Z,-3.80
2018-02-22T21:06:28.926Z,-3.80
2018-02-22T21:08:57.235Z,-3.80
2018-02-22T21:11:24.742Z,-3.80
2018-02-22T21:13:53.056Z,-3.90
2018-02-22T21:16:20.576Z,-3.80
2018-02-22T21:18:48.850Z,-3.90
2018-02-22T21:21:17.142Z,-3.90
2018-02-22T21:23:45.451Z,-3.90
2018-02-22T21:26:12.997Z,-3.90
2018-02-22T21:28:40.555Z,-3.90
2018-02-22T21:31:08.080Z,-3.90
2018-02-22T21:33:36.376Z,-3.90
2018-02-22T21:36:03.915Z,-3.90
2018-02-22T21:38:32.195Z,-3.90
2018-02-22T21:41:00.486Z,-3.80
2018-02-22T21:43:28.779Z,-3.80
2018-02-22T21:45:56.302Z,-3.80
2018-02-22T21:48:24.654Z,-3.90
2018-02-22T21:50:52.195Z,-3.90
2018-02-22T21:53:19.719Z,-3.90
2018-02-22T21:55:47.279Z,-4.00
2018-02-22T21:58:14.811Z,-3.90
2018-02-22T22:00:42.358Z,-3.90
2018-02-22T22:03:10.327Z,-3.90
2018-02-22T22:05:38.653Z,-4.00
2018-02-22T22:08:06.206Z,-4.00
2018-02-22T22:10:33.759Z,-4.00
2018-02-22T22:13:01.266Z,-4.00
2018-02-22T22:15:28.788Z,-4.00
2018-02-22T22:17:56.321Z,-3.90
2018-02-22T22:20:24.595Z,-3.90
2018-02-22T22:22:52.898Z,-4.00
2018-02-22T22:25:20.410Z,-4.00
2018-02-22T22:27:48.033Z,-3.90
2018-02-22T22:30:15.540Z,-3.90
2018-02-22T22:32:43.874Z,-3.90
2018-02-22T22:35:11.399Z,-3.90
2018-02-22T22:37:38.922Z,-4.00
2018-02-22T22:40:06.523Z,-4.00
2018-02-22T22:42:34.047Z,-4.00
2018-02-22T22:45:01.564Z,-4.00
2018-02-22T22:47:29.098Z,-4.00
2018-02-22T22:49:56.612Z,-4.00
2018-02-22T22:52:24.162Z,-4.00
2018-02-22T22:54:53.341Z,-4.00
2018-02-22T22:57:20.880Z,-4.00
2018-02-22T22:59:48.391Z,-3.90
2018-02-22T23:02:15.987Z,-4.00
2018-02-22T23:04:43.510Z,-4.00
2018-02-22T23:07:11.066Z,-4.00
2018-02-22T23:09:38.571Z,-4.00
2018-02-22T23:12:06.094Z,-4.00
2018-02-22T23:14:34.456Z,-4.00
2018-02-22T23:17:02.012Z,-4.10
2018-02-22T23:19:29.517Z,-4.00
2018-02-22T23:21:57.024Z,-4.00
2018-02-22T23:24:24.551Z,-4.00
2018-02-22T23:26:52.055Z,-4.10
2018-02-22T23:29:19.583Z,-4.10
2018-02-22T23:31:47.100Z,-4.00
2018-02-22T23:34:14.627Z,-4.00
2018-02-22T23:36:42.142Z,-4.10
2018-02-22T23:39:09.963Z,-4.10
2018-02-22T23:41:58.152Z,-4.10
2018-02-22T23:44:25.680Z,-4.10
2018-02-22T23:46:53.947Z,-4.10
2018-02-22T23:49:22.234Z,-4.10
2018-02-22T23:51:49.738Z,-4.10
2018-02-22T23:54:17.268Z,-4.00
2018-02-22T23:56:44.770Z,-4.10
2018-02-22T23:59:12.294Z,-4.10
